S/y Blue Clipper — MCRJ6 — position and weather

sailwx.info

Track history (hours):
 
Tides and Currents Weather Stations Pressure Air Temp Water Temp Dewpoint Dewpoint Depression Visibility Wind Speed Wind Dir Waves Ship Positions

S/y Blue Clipper

Last reported at 2019-Sep-20 14:52 UTC. Time now 2019-Sep-21 04:41 UTC.
Position N 48°07' W 005°36'.

Length 38 m.

Type: Sailing vessel. MMSI: 232014202.

Date/timePositionNaut miles runAvg speedWind from/ knotsBaromVisibWave heightAir tempDewpointWater temp
2019-Sep-20 14:52N 48°07' W 005°36'4 7.4
2019-Sep-20 14:22N 48°10' W 005°32'2 6.1
2019-Sep-20 13:59N 48°11' W 005°30'4 7.8
2019-Sep-20 13:28N 48°14' W 005°25'24 6.3
2019-Sep-20 09:38N 48°35' W 005°08'1 6.8
2019-Sep-20 09:30N 48°36' W 005°07'4 7.7
2019-Sep-20 09:00N 48°39' W 005°03'4 7.5
2019-Sep-20 08:28N 48°42' W 004°59'4 7.6
2019-Sep-20 07:59N 48°45' W 004°55'  
2019-Sep-14 06:55N 50°37' W 002°26'0 0.0
2019-Sep-14 05:55N 50°37' W 002°26'0 0.3
2019-Sep-14 05:15N 50°37' W 002°26'1 2.8
2019-Sep-14 05:00N 50°36' W 002°25'2 3.4
2019-Sep-14 04:30N 50°35' W 002°23'2 4.3
2019-Sep-14 03:58N 50°34' W 002°20'13 4.7
2019-Sep-14 01:16N 50°32' W 001°60'2 6.9
2019-Sep-14 00:59N 50°33' W 001°57'4 7.4
2019-Sep-14 00:30N 50°36' W 001°53'5 0.5
2019-Sep-13 14:50N 50°39' W 001°48'1 1.0
2019-Sep-13 14:02N 50°39' W 001°46'19 0.7
2019-Sep-12 10:10N 50°46' W 001°18'0 1.6
2019-Sep-12 09:55N 50°46' W 001°18'0 0.0
2019-Sep-12 09:10N 50°46' W 001°18'0 0.0
2019-Sep-12 08:57N 50°46' W 001°18'0 0.0
2019-Sep-12 08:16N 50°46' W 001°18'0 0.0
2019-Sep-12 04:52N 50°46' W 001°18'0 0.0
2019-Sep-12 04:16N 50°46' W 001°18'0 0.0
2019-Sep-12 00:40N 50°46' W 001°18'0 0.0
2019-Sep-12 00:28N 50°46' W 001°18'0 0.0
2019-Sep-11 23:28N 50°46' W 001°18'0 0.0
2019-Sep-11 22:25N 50°46' W 001°18'0 0.0
2019-Sep-11 20:52N 50°46' W 001°18'0 0.0
2019-Sep-11 19:40N 50°46' W 001°18'0 0.0
2019-Sep-11 19:25N 50°46' W 001°18'0 0.0
2019-Sep-11 15:07N 50°46' W 001°18'0 0.0
2019-Sep-11 11:31N 50°46' W 001°18'0 0.0
2019-Sep-11 10:22N 50°46' W 001°18'0 0.0
2019-Sep-11 09:13N 50°46' W 001°18'0 0.0
2019-Sep-11 08:34N 50°46' W 001°18'0 0.0
2019-Sep-11 07:34N 50°46' W 001°18'0 0.0
2019-Sep-11 07:13N 50°46' W 001°18'0 0.0
2019-Sep-10 23:49N 50°46' W 001°18'0 0.0
2019-Sep-10 23:01N 50°46' W 001°18'0 0.0
2019-Sep-10 20:46N 50°46' W 001°18'0 0.0
2019-Sep-10 19:07N 50°46' W 001°18'0 0.0
2019-Sep-10 17:31N 50°46' W 001°18'0 0.0
2019-Sep-10 17:13N 50°46' W 001°18'  
Track history (hours):
 
Tides and Currents Weather Stations Pressure Air Temp Water Temp Dewpoint Dewpoint Depression Visibility Wind Speed Wind Dir Waves Ship Positions

S/y Blue Clipper

Last reported at 2019-Sep-20 14:52 UTC. Time now 2019-Sep-21 04:41 UTC.
Position N 48°07' W 005°36'.

Length 38 m.

Type: Sailing vessel. MMSI: 232014202.

Date/timePositionNaut miles runAvg speedWind from/ knotsBaromVisibWave heightAir tempDewpointWater temp
2019-Sep-20 14:52N 48°07' W 005°36'4 7.4
2019-Sep-20 14:22N 48°10' W 005°32'2 6.1
2019-Sep-20 13:59N 48°11' W 005°30'4 7.8
2019-Sep-20 13:28N 48°14' W 005°25'24 6.3
2019-Sep-20 09:38N 48°35' W 005°08'1 6.8
2019-Sep-20 09:30N 48°36' W 005°07'4 7.7
2019-Sep-20 09:00N 48°39' W 005°03'4 7.5
2019-Sep-20 08:28N 48°42' W 004°59'4 7.6
2019-Sep-20 07:59N 48°45' W 004°55'  
2019-Sep-14 06:55N 50°37' W 002°26'0 0.0
2019-Sep-14 05:55N 50°37' W 002°26'0 0.3
2019-Sep-14 05:15N 50°37' W 002°26'1 2.8
2019-Sep-14 05:00N 50°36' W 002°25'2 3.4
2019-Sep-14 04:30N 50°35' W 002°23'2 4.3
2019-Sep-14 03:58N 50°34' W 002°20'13 4.7
2019-Sep-14 01:16N 50°32' W 001°60'2 6.9
2019-Sep-14 00:59N 50°33' W 001°57'4 7.4
2019-Sep-14 00:30N 50°36' W 001°53'5 0.5
2019-Sep-13 14:50N 50°39' W 001°48'1 1.0
2019-Sep-13 14:02N 50°39' W 001°46'19 0.7
2019-Sep-12 10:10N 50°46' W 001°18'0 1.6
2019-Sep-12 09:55N 50°46' W 001°18'0 0.0
2019-Sep-12 09:10N 50°46' W 001°18'0 0.0
2019-Sep-12 08:57N 50°46' W 001°18'0 0.0
2019-Sep-12 08:16N 50°46' W 001°18'0 0.0
2019-Sep-12 04:52N 50°46' W 001°18'0 0.0
2019-Sep-12 04:16N 50°46' W 001°18'0 0.0
2019-Sep-12 00:40N 50°46' W 001°18'0 0.0
2019-Sep-12 00:28N 50°46' W 001°18'0 0.0
2019-Sep-11 23:28N 50°46' W 001°18'0 0.0
2019-Sep-11 22:25N 50°46' W 001°18'0 0.0
2019-Sep-11 20:52N 50°46' W 001°18'0 0.0
2019-Sep-11 19:40N 50°46' W 001°18'0 0.0
2019-Sep-11 19:25N 50°46' W 001°18'0 0.0
2019-Sep-11 15:07N 50°46' W 001°18'0 0.0
2019-Sep-11 11:31N 50°46' W 001°18'0 0.0
2019-Sep-11 10:22N 50°46' W 001°18'0 0.0
2019-Sep-11 09:13N 50°46' W 001°18'0 0.0
2019-Sep-11 08:34N 50°46' W 001°18'0 0.0
2019-Sep-11 07:34N 50°46' W 001°18'0 0.0
2019-Sep-11 07:13N 50°46' W 001°18'0 0.0
2019-Sep-10 23:49N 50°46' W 001°18'0 0.0
2019-Sep-10 23:01N 50°46' W 001°18'0 0.0
2019-Sep-10 20:46N 50°46' W 001°18'0 0.0
2019-Sep-10 19:07N 50°46' W 001°18'0 0.0
2019-Sep-10 17:31N 50°46' W 001°18'0 0.0
2019-Sep-10 17:13N 50°46' W 001°18'  

Dump ship's entire track history